Time;durP1;ratioP1;P1;durP2;ratioP2;P2;SDS_P1;SDS_P2;PMS_P1;PMS_P2;Temp;Humidity;BMP_temperature;BMP_pressure;BME280_temperature;BME280_humidity;BME280_pressure;Samples;Min_cycle;Max_cycle;Signal;HPM_P1;HPM_P2
2023/03/09 00:01:53;;;;;;;8.40;5.72;;;4.00;81.60;;;;;;5025094;28;20466;-71
2023/03/09 00:04:19;;;;;;;7.95;5.05;;;4.00;81.60;;;;;;5025343;28;20052;-70
2023/03/09 00:06:45;;;;;;;11.10;6.05;;;4.00;81.70;;;;;;5008104;28;20104;-71
2023/03/09 00:09:13;;;;;;;10.35;6.32;;;4.00;81.60;;;;;;5033727;28;20133;-72
2023/03/09 00:11:43;;;;;;;7.15;4.75;;;4.00;81.60;;;;;;5034061;28;20147;-70
2023/03/09 00:14:10;;;;;;;7.72;4.35;;;4.00;81.70;;;;;;5008287;28;20374;-69
2023/03/09 00:16:38;;;;;;;9.40;5.40;;;4.00;81.60;;;;;;5027802;28;20041;-72
2023/03/09 00:19:04;;;;;;;7.95;4.60;;;4.00;81.60;;;;;;5034453;28;20025;-73
2023/03/09 00:21:38;;;;;;;9.77;5.85;;;4.00;81.70;;;;;;5030061;28;20049;-73
2023/03/09 00:24:16;;;;;;;8.85;5.80;;;4.00;81.70;;;;;;5022379;28;20029;-71
2023/03/09 00:26:47;;;;;;;8.77;5.55;;;4.00;81.70;;;;;;5019471;28;20045;-69
2023/03/09 00:29:12;;;;;;;10.55;5.47;;;4.00;81.60;;;;;;5040691;28;20119;-68
2023/03/09 00:31:39;;;;;;;9.77;6.60;;;3.90;81.70;;;;;;5020656;28;20536;-68
2023/03/09 00:34:05;;;;;;;10.10;6.43;;;3.90;81.80;;;;;;5038064;28;20112;-68
2023/03/09 00:36:31;;;;;;;8.30;5.80;;;3.90;81.90;;;;;;5034322;28;20034;-72
2023/03/09 00:38:58;;;;;;;9.75;5.95;;;3.90;81.90;;;;;;5027294;28;20040;-71
2023/03/09 00:41:30;;;;;;;9.32;6.55;;;3.90;81.80;;;;;;5011345;28;20029;-71
2023/03/09 00:43:59;;;;;;;9.05;5.28;;;3.90;81.80;;;;;;5041249;28;20027;-71
2023/03/09 00:46:25;;;;;;;8.45;5.35;;;3.80;81.80;;;;;;5035855;28;20017;-72
2023/03/09 00:48:51;;;;;;;10.40;7.05;;;3.80;81.90;;;;;;5030691;28;20124;-71
2023/03/09 00:51:17;;;;;;;9.35;5.60;;;3.90;81.90;;;;;;5030107;28;20033;-70
2023/03/09 00:53:42;;;;;;;10.55;6.30;;;3.90;81.90;;;;;;5024841;28;20018;-71
2023/03/09 00:56:13;;;;;;;10.07;5.47;;;3.90;81.90;;;;;;5021324;28;20075;-73
2023/03/09 00:58:39;;;;;;;7.55;5.32;;;3.90;81.80;;;;;;5016432;28;20481;-69
2023/03/09 01:01:13;;;;;;;9.13;5.70;;;3.90;81.80;;;;;;5038071;28;20028;-68
2023/03/09 01:03:39;;;;;;;10.63;6.47;;;3.90;81.80;;;;;;5025237;28;20439;-71
2023/03/09 01:06:05;;;;;;;8.52;4.85;;;3.80;81.90;;;;;;5004251;28;20029;-71
2023/03/09 01:08:32;;;;;;;7.28;4.75;;;3.90;81.90;;;;;;5008887;28;20379;-71
2023/03/09 01:10:58;;;;;;;7.28;5.22;;;3.90;81.90;;;;;;5021861;28;20072;-70
2023/03/09 01:13:24;;;;;;;9.02;6.00;;;3.90;81.90;;;;;;5030304;28;20034;-68
2023/03/09 01:15:50;;;;;;;8.88;6.50;;;3.90;81.90;;;;;;5029641;28;20463;-68
2023/03/09 01:18:15;;;;;;;9.95;5.75;;;3.80;81.80;;;;;;5030541;28;20056;-69
2023/03/09 01:20:41;;;;;;;7.50;5.80;;;3.80;81.90;;;;;;5011210;28;20021;-67
2023/03/09 01:23:07;;;;;;;9.82;5.35;;;3.80;82.00;;;;;;5027887;28;20973;-69
2023/03/09 01:25:33;;;;;;;8.00;5.63;;;3.80;81.90;;;;;;5014782;28;20029;-69
2023/03/09 01:27:59;;;;;;;11.85;6.90;;;3.80;81.80;;;;;;5035242;28;20017;-67
2023/03/09 01:30:24;;;;;;;9.18;5.85;;;3.80;81.90;;;;;;5029589;28;20087;-68
2023/03/09 01:32:50;;;;;;;7.93;5.78;;;3.80;81.90;;;;;;5034464;28;20021;-69
2023/03/09 01:35:16;;;;;;;10.70;5.75;;;3.90;81.90;;;;;;5033172;28;20087;-69
2023/03/09 01:37:42;;;;;;;8.90;5.97;;;3.90;81.90;;;;;;5014123;28;20025;-68
2023/03/09 01:40:15;;;;;;;10.63;5.65;;;3.90;81.80;;;;;;5033110;28;20484;-68
2023/03/09 01:42:41;;;;;;;12.45;7.43;;;3.90;81.80;;;;;;5036970;28;20021;-68
2023/03/09 01:45:11;;;;;;;10.38;6.05;;;3.90;81.70;;;;;;5016775;28;20038;-69
2023/03/09 01:47:37;;;;;;;6.22;5.05;;;3.90;81.80;;;;;;5030440;28;20120;-68
2023/03/09 01:50:04;;;;;;;4.82;4.32;;;3.90;81.80;;;;;;5025011;28;20045;-69
2023/03/09 01:52:32;;;;;;;8.50;5.53;;;3.90;81.70;;;;;;5026892;28;20040;-69
2023/03/09 01:55:09;;;;;;;8.95;5.93;;;3.90;81.70;;;;;;5022743;28;20108;-72
2023/03/09 01:57:40;;;;;;;7.57;5.28;;;3.90;81.70;;;;;;5018186;28;20384;-71
2023/03/09 02:00:12;;;;;;;9.85;5.88;;;3.90;81.80;;;;;;5030347;28;20036;-68
2023/03/09 02:02:43;;;;;;;11.43;5.43;;;3.90;81.80;;;;;;5028878;28;20038;-68
2023/03/09 02:05:26;;;;;;;6.78;5.07;;;3.90;81.80;;;;;;5013566;28;20048;-68
2023/03/09 02:07:52;;;;;;;8.80;6.47;;;4.00;81.80;;;;;;5031462;28;20032;-69
2023/03/09 02:10:33;;;;;;;9.07;5.35;;;3.90;81.80;;;;;;5030517;28;20073;-68
2023/03/09 02:13:06;;;;;;;11.55;6.07;;;3.90;81.80;;;;;;5031156;28;20029;-69
2023/03/09 02:15:32;;;;;;;8.77;5.45;;;3.90;82.00;;;;;;5033812;28;20064;-68
2023/03/09 02:17:58;;;;;;;10.77;6.22;;;3.90;82.00;;;;;;5031597;28;20013;-68
2023/03/09 02:20:53;;;;;;;8.57;5.07;;;3.90;81.90;;;;;;5013773;28;20025;-69
2023/03/09 02:23:30;;;;;;;11.48;6.93;;;4.00;81.80;;;;;;4981955;28;20049;-68
2023/03/09 02:26:16;;;;;;;7.75;4.60;;;3.90;81.70;;;;;;5015671;28;20017;-72
2023/03/09 02:28:42;;;;;;;10.40;6.50;;;3.90;81.70;;;;;;5004877;28;20030;-72
2023/03/09 02:31:09;;;;;;;8.90;5.38;;;3.90;81.90;;;;;;5026243;28;20082;-73
2023/03/09 02:33:35;;;;;;;10.63;7.03;;;3.90;81.90;;;;;;5028096;28;20033;-69
2023/03/09 02:36:01;;;;;;;8.00;6.43;;;3.90;81.90;;;;;;5025330;28;20100;-69
2023/03/09 02:38:26;;;;;;;11.15;6.30;;;3.90;81.80;;;;;;5030511;28;20021;-68
2023/03/09 02:40:56;;;;;;;9.43;6.13;;;3.90;81.90;;;;;;5018665;28;20032;-72
2023/03/09 02:43:28;;;;;;;10.93;7.40;;;3.80;81.80;;;;;;5004595;28;20432;-70
2023/03/09 02:45:54;;;;;;;10.68;6.85;;;3.90;81.90;;;;;;5037965;28;20059;-72
2023/03/09 02:48:19;;;;;;;10.93;6.32;;;3.80;81.90;;;;;;5025413;28;20064;-72
2023/03/09 02:50:45;;;;;;;11.95;7.88;;;3.90;82.00;;;;;;5044083;28;20029;-68
2023/03/09 02:53:11;;;;;;;8.95;5.18;;;3.90;82.00;;;;;;5009087;28;20030;-70
2023/03/09 02:55:36;;;;;;;10.57;6.15;;;3.90;81.90;;;;;;5035047;28;20091;-69
2023/03/09 02:58:02;;;;;;;9.60;6.35;;;3.90;82.00;;;;;;5025355;28;20028;-69
2023/03/09 03:00:28;;;;;;;12.00;6.55;;;3.90;81.90;;;;;;5022215;28;20060;-69
2023/03/09 03:02:54;;;;;;;8.55;5.95;;;3.90;81.90;;;;;;5016028;28;20112;-69
2023/03/09 03:05:20;;;;;;;10.68;7.15;;;3.90;81.90;;;;;;5027981;28;20116;-69
2023/03/09 03:07:46;;;;;;;10.77;6.50;;;3.90;81.90;;;;;;5008317;28;20021;-68
2023/03/09 03:10:12;;;;;;;8.45;6.00;;;3.90;81.90;;;;;;5031254;28;20033;-69
2023/03/09 03:12:38;;;;;;;8.95;5.40;;;3.90;81.90;;;;;;5038633;28;20029;-69
2023/03/09 03:15:05;;;;;;;8.05;6.07;;;3.90;81.90;;;;;;5031022;28;20103;-69
2023/03/09 03:17:30;;;;;;;11.27;6.32;;;3.90;81.90;;;;;;5032172;28;20033;-69
2023/03/09 03:19:56;;;;;;;8.90;6.50;;;3.90;81.80;;;;;;5032422;28;20381;-69
2023/03/09 03:22:22;;;;;;;10.60;6.47;;;3.90;81.90;;;;;;5033575;28;20026;-69
2023/03/09 03:24:48;;;;;;;9.70;5.85;;;3.90;81.90;;;;;;4998744;28;20064;-72
2023/03/09 03:27:14;;;;;;;7.45;5.53;;;3.90;81.90;;;;;;5022011;28;20028;-70
2023/03/09 03:29:39;;;;;;;9.60;5.25;;;3.90;81.80;;;;;;5028615;28;20032;-71
2023/03/09 03:32:05;;;;;;;9.35;5.97;;;3.90;81.90;;;;;;5026940;28;20032;-72
2023/03/09 03:34:31;;;;;;;9.13;6.25;;;3.90;81.90;;;;;;5025782;28;20033;-71
2023/03/09 03:36:57;;;;;;;7.85;5.20;;;3.90;81.90;;;;;;5023173;28;20388;-72
2023/03/09 03:39:23;;;;;;;10.10;5.55;;;4.00;81.90;;;;;;5022090;28;20028;-71
2023/03/09 03:41:48;;;;;;;10.98;6.90;;;4.00;81.80;;;;;;5024588;28;20022;-72
2023/03/09 03:44:14;;;;;;;11.00;6.78;;;4.00;81.80;;;;;;5031508;28;20109;-71
2023/03/09 03:46:40;;;;;;;6.70;4.90;;;4.00;81.80;;;;;;5027366;28;20519;-71
2023/03/09 03:49:06;;;;;;;7.57;5.40;;;4.00;81.70;;;;;;5029820;28;20095;-69
2023/03/09 03:51:32;;;;;;;9.85;5.85;;;4.00;81.80;;;;;;5030359;28;20030;-69
2023/03/09 03:53:57;;;;;;;8.95;5.65;;;3.90;81.80;;;;;;5039301;28;20017;-70
2023/03/09 03:56:23;;;;;;;10.65;6.65;;;4.00;81.80;;;;;;5034910;28;20029;-71
2023/03/09 03:58:49;;;;;;;10.18;5.68;;;4.00;81.80;;;;;;5022573;28;20409;-71
2023/03/09 04:01:15;;;;;;;9.07;5.40;;;4.00;81.80;;;;;;5034199;28;20114;-72
2023/03/09 04:03:41;;;;;;;10.15;6.18;;;4.00;81.80;;;;;;5038107;28;20124;-69
2023/03/09 04:06:07;;;;;;;9.80;5.55;;;4.00;81.80;;;;;;5029815;28;20112;-72
2023/03/09 04:08:33;;;;;;;12.50;7.20;;;4.00;81.80;;;;;;5036627;28;20057;-71
2023/03/09 04:10:59;;;;;;;10.82;7.30;;;4.00;81.80;;;;;;5029734;28;20041;-70
2023/03/09 04:13:25;;;;;;;10.98;5.90;;;4.00;81.80;;;;;;5039605;28;20471;-67
2023/03/09 04:15:51;;;;;;;9.65;6.00;;;4.00;81.80;;;;;;5034698;28;20046;-69
2023/03/09 04:18:16;;;;;;;8.18;6.28;;;4.00;81.80;;;;;;5034307;28;20551;-69
2023/03/09 04:20:43;;;;;;;9.90;6.43;;;4.00;81.70;;;;;;5033831;28;20034;-71
2023/03/09 04:23:10;;;;;;;9.00;6.18;;;4.00;81.80;;;;;;5031864;28;20029;-70
2023/03/09 04:25:36;;;;;;;8.50;5.65;;;4.00;81.80;;;;;;5036500;28;20413;-71
2023/03/09 04:28:02;;;;;;;10.48;6.75;;;4.00;81.80;;;;;;5035808;28;20036;-69
2023/03/09 04:30:28;;;;;;;12.82;7.05;;;4.00;81.80;;;;;;5026336;28;20473;-68
2023/03/09 04:32:54;;;;;;;12.02;6.88;;;4.00;81.70;;;;;;5039587;28;20361;-69
2023/03/09 04:35:20;;;;;;;9.68;7.53;;;3.90;81.70;;;;;;5023106;28;20029;-67
2023/03/09 04:37:46;;;;;;;9.13;6.75;;;3.90;81.80;;;;;;5012878;28;20095;-68
2023/03/09 04:40:13;;;;;;;9.95;6.95;;;3.90;81.80;;;;;;5012604;28;20427;-69
2023/03/09 04:42:38;;;;;;;11.68;7.60;;;4.00;81.80;;;;;;5023748;28;20511;-69
2023/03/09 04:45:05;;;;;;;6.72;5.85;;;4.00;81.80;;;;;;5017207;28;20017;-68
2023/03/09 04:47:31;;;;;;;10.68;6.90;;;4.00;81.80;;;;;;5017404;28;20036;-71
2023/03/09 04:49:57;;;;;;;12.38;7.78;;;4.00;81.80;;;;;;5025409;28;20071;-71
2023/03/09 04:52:23;;;;;;;10.55;7.07;;;4.00;81.70;;;;;;5026885;28;20392;-68
2023/03/09 04:54:49;;;;;;;10.32;6.47;;;4.00;81.80;;;;;;5029511;28;20104;-69
2023/03/09 04:57:15;;;;;;;8.38;5.53;;;4.00;81.80;;;;;;5032777;28;20532;-69
2023/03/09 04:59:41;;;;;;;10.65;6.88;;;4.00;81.80;;;;;;5031691;28;20037;-69
2023/03/09 05:02:07;;;;;;;10.23;7.47;;;4.00;81.90;;;;;;5012662;28;20465;-71
2023/03/09 05:04:33;;;;;;;10.73;7.60;;;4.00;81.80;;;;;;5035437;28;20171;-70
2023/03/09 05:06:59;;;;;;;11.10;7.78;;;4.10;81.80;;;;;;5024666;28;20025;-70
2023/03/09 05:09:25;;;;;;;11.60;7.28;;;4.10;81.80;;;;;;5013939;28;20400;-70
2023/03/09 05:11:51;;;;;;;13.10;7.88;;;4.10;81.70;;;;;;5015476;28;20101;-71
2023/03/09 05:14:21;;;;;;;13.00;7.88;;;4.10;81.70;;;;;;5015159;28;20116;-69
2023/03/09 05:16:53;;;;;;;11.07;6.70;;;4.10;81.70;;;;;;5004657;28;1129693;-69
2023/03/09 05:19:20;;;;;;;10.95;7.18;;;4.10;81.70;;;;;;5028348;28;20495;-69
2023/03/09 05:21:46;;;;;;;13.65;8.35;;;4.10;81.60;;;;;;5018872;28;20144;-70
2023/03/09 05:24:11;;;;;;;12.10;7.47;;;4.10;81.60;;;;;;5021583;28;20442;-71
2023/03/09 05:26:37;;;;;;;9.32;6.65;;;4.10;81.60;;;;;;5042051;28;20107;-68
2023/03/09 05:29:03;;;;;;;12.23;7.22;;;4.10;81.60;;;;;;5026901;28;20097;-68
2023/03/09 05:31:29;;;;;;;12.88;7.78;;;4.10;81.70;;;;;;5011146;28;20021;-71
2023/03/09 05:33:54;;;;;;;8.82;5.32;;;4.10;81.60;;;;;;5023121;28;20053;-71
2023/03/09 05:36:24;;;;;;;11.00;7.38;;;4.10;81.60;;;;;;5026261;28;20500;-71
2023/03/09 05:38:50;;;;;;;10.45;7.43;;;4.10;81.50;;;;;;5027607;28;20079;-72
2023/03/09 05:41:17;;;;;;;11.05;6.32;;;4.10;81.60;;;;;;5026543;28;20140;-71
2023/03/09 05:43:43;;;;;;;15.27;7.95;;;4.10;81.60;;;;;;5028543;28;20026;-71
2023/03/09 05:46:11;;;;;;;12.02;7.18;;;4.10;81.60;;;;;;4999816;28;20021;-71
2023/03/09 05:48:38;;;;;;;11.65;6.97;;;4.10;81.60;;;;;;5022147;28;20026;-71
2023/03/09 05:51:04;;;;;;;9.48;6.22;;;4.10;81.60;;;;;;5013105;28;20491;-69
2023/03/09 05:53:31;;;;;;;11.30;6.50;;;4.10;81.60;;;;;;5032670;28;20037;-72
2023/03/09 05:55:58;;;;;;;10.23;5.68;;;4.20;81.60;;;;;;5031749;28;20030;-71
2023/03/09 05:58:24;;;;;;;9.98;5.75;;;4.20;81.60;;;;;;5028897;28;20038;-71
2023/03/09 06:00:52;;;;;;;12.68;5.53;;;4.20;81.60;;;;;;5035297;28;20029;-68
2023/03/09 06:03:18;;;;;;;11.27;7.90;;;4.20;81.70;;;;;;5020733;28;20034;-71
2023/03/09 06:05:44;;;;;;;10.00;5.70;;;4.20;81.70;;;;;;5018958;28;20032;-70
2023/03/09 06:08:11;;;;;;;9.68;5.75;;;4.20;81.70;;;;;;5024758;28;20034;-69
2023/03/09 06:10:36;;;;;;;7.88;5.45;;;4.20;81.60;;;;;;5019636;28;20030;-73
2023/03/09 06:13:02;;;;;;;10.48;7.10;;;4.20;81.60;;;;;;5021159;28;20477;-72
2023/03/09 06:15:28;;;;;;;10.57;7.03;;;4.20;81.60;;;;;;5012281;28;20021;-72
2023/03/09 06:17:54;;;;;;;11.20;6.25;;;4.20;81.60;;;;;;5030049;28;20412;-71
2023/03/09 06:20:19;;;;;;;11.07;7.13;;;4.20;81.60;;;;;;5026167;28;20401;-71
2023/03/09 06:22:45;;;;;;;11.98;6.15;;;4.20;81.60;;;;;;5009194;28;20116;-77
2023/03/09 06:25:12;;;;;;;10.98;5.90;;;4.20;81.60;;;;;;5026308;28;20451;-77
2023/03/09 06:27:48;;;;;;;11.15;7.50;;;4.20;81.60;;;;;;5028491;28;20025;-77
2023/03/09 06:30:14;;;;;;;11.07;6.22;;;4.20;81.60;;;;;;5011905;28;20125;-69
2023/03/09 06:32:40;;;;;;;7.53;4.85;;;4.20;81.60;;;;;;5021581;28;20108;-69
2023/03/09 06:35:06;;;;;;;7.47;5.45;;;4.30;81.60;;;;;;5025918;28;20083;-69
2023/03/09 06:37:32;;;;;;;10.95;5.85;;;4.30;81.60;;;;;;5006826;28;20261;-69
2023/03/09 06:39:58;;;;;;;10.27;6.38;;;4.20;81.60;;;;;;5010103;28;20033;-72
2023/03/09 06:42:24;;;;;;;8.60;5.40;;;4.20;81.60;;;;;;5024935;28;20034;-69
2023/03/09 06:44:50;;;;;;;10.63;5.85;;;4.30;81.60;;;;;;5006065;28;20816;-69
2023/03/09 06:47:16;;;;;;;11.80;6.03;;;4.30;81.60;;;;;;5029538;28;20392;-68
2023/03/09 06:49:43;;;;;;;8.07;4.90;;;4.30;81.50;;;;;;5028497;28;20030;-67
2023/03/09 06:52:09;;;;;;;9.10;6.00;;;4.30;81.50;;;;;;5030001;28;20060;-67
2023/03/09 06:54:35;;;;;;;7.82;5.28;;;4.40;81.50;;;;;;5025058;28;20057;-69
2023/03/09 06:57:00;;;;;;;10.77;5.70;;;4.40;81.50;;;;;;5028437;28;20068;-70
2023/03/09 06:59:28;;;;;;;7.65;5.30;;;4.30;81.40;;;;;;5013790;28;20045;-68
2023/03/09 07:01:54;;;;;;;7.47;4.80;;;4.30;81.50;;;;;;5009795;28;20033;-68
2023/03/09 07:04:20;;;;;;;10.55;6.38;;;4.30;81.50;;;;;;5022616;28;20507;-67
2023/03/09 07:06:45;;;;;;;10.38;6.45;;;4.30;81.40;;;;;;5020888;28;20480;-67
2023/03/09 07:09:11;;;;;;;8.32;5.80;;;4.30;81.40;;;;;;5026852;28;20480;-66
2023/03/09 07:11:37;;;;;;;8.13;4.53;;;4.30;81.50;;;;;;5028759;28;20025;-66
2023/03/09 07:14:03;;;;;;;9.80;6.45;;;4.30;81.50;;;;;;5029716;28;20017;-70
2023/03/09 07:16:30;;;;;;;6.72;4.63;;;4.30;81.50;;;;;;5018468;28;20488;-66
2023/03/09 07:18:56;;;;;;;13.13;6.53;;;4.40;81.50;;;;;;5032057;28;20503;-67
2023/03/09 07:21:21;;;;;;;9.25;6.43;;;4.40;81.60;;;;;;5004034;28;20026;-67
2023/03/09 07:23:47;;;;;;;10.45;5.85;;;4.40;81.60;;;;;;4997652;28;20033;-66
2023/03/09 07:26:13;;;;;;;8.68;5.68;;;4.40;81.60;;;;;;5020136;28;20079;-72
2023/03/09 07:28:39;;;;;;;8.57;5.30;;;4.40;81.50;;;;;;5010420;28;20032;-72
2023/03/09 07:31:13;;;;;;;10.15;6.00;;;4.50;81.50;;;;;;5032586;28;20485;-71
2023/03/09 07:33:39;;;;;;;7.32;5.85;;;4.50;81.50;;;;;;5016851;28;20398;-71
2023/03/09 07:36:07;;;;;;;10.38;7.47;;;4.50;81.50;;;;;;5032322;28;20017;-65
2023/03/09 07:38:33;;;;;;;10.07;6.55;;;4.50;81.50;;;;;;5027087;28;20025;-65
2023/03/09 07:41:00;;;;;;;9.48;6.20;;;4.50;81.50;;;;;;4998355;28;20461;-64
2023/03/09 07:43:26;;;;;;;9.43;6.78;;;4.50;81.50;;;;;;5028498;28;20499;-65
2023/03/09 07:45:52;;;;;;;8.05;6.25;;;4.60;81.50;;;;;;5023774;28;20058;-64
2023/03/09 07:48:18;;;;;;;10.93;7.15;;;4.60;81.40;;;;;;5025516;28;20068;-65
2023/03/09 07:50:44;;;;;;;9.73;6.55;;;4.70;81.40;;;;;;5016535;28;20034;-65
2023/03/09 07:53:10;;;;;;;10.73;7.55;;;4.70;81.40;;;;;;5013305;28;20494;-65
2023/03/09 07:55:36;;;;;;;10.70;8.10;;;4.70;81.40;;;;;;5027188;28;20029;-65
2023/03/09 07:58:03;;;;;;;9.98;7.10;;;4.70;81.30;;;;;;5031664;28;20037;-66
2023/03/09 08:00:28;;;;;;;10.95;7.03;;;4.70;81.30;;;;;;5030853;28;20037;-65
2023/03/09 08:02:56;;;;;;;11.15;6.38;;;4.70;81.40;;;;;;5027310;28;20040;-65
2023/03/09 08:05:22;;;;;;;12.93;5.97;;;4.70;81.40;;;;;;5023032;28;20037;-65
2023/03/09 08:07:49;;;;;;;11.63;8.10;;;4.80;81.40;;;;;;5024921;28;20104;-65
2023/03/09 08:10:17;;;;;;;13.02;7.45;;;4.80;81.30;;;;;;5013048;28;20609;-65
2023/03/09 08:12:47;;;;;;;11.05;6.30;;;4.80;81.30;;;;;;5030466;28;20037;-65
2023/03/09 08:15:13;;;;;;;12.25;7.15;;;4.90;81.30;;;;;;5027718;28;20029;-66
2023/03/09 08:17:39;;;;;;;11.70;7.15;;;4.90;81.30;;;;;;5026486;28;20413;-73
2023/03/09 08:20:08;;;;;;;11.85;7.47;;;4.90;81.10;;;;;;5032959;28;20108;-74
2023/03/09 08:22:35;;;;;;;11.50;6.10;;;5.00;81.20;;;;;;5033730;28;20030;-72
2023/03/09 08:25:01;;;;;;;13.95;7.07;;;5.00;81.10;;;;;;5032291;28;20033;-73
2023/03/09 08:27:27;;;;;;;10.98;5.65;;;5.00;81.10;;;;;;5026956;28;21118;-74
2023/03/09 08:29:53;;;;;;;9.57;6.53;;;5.00;81.10;;;;;;5036172;28;20036;-74
2023/03/09 08:32:18;;;;;;;11.07;7.03;;;5.00;81.10;;;;;;5011784;28;20042;-74
2023/03/09 08:34:45;;;;;;;13.32;7.47;;;5.10;81.20;;;;;;5028225;28;20029;-74
2023/03/09 08:37:10;;;;;;;10.23;6.65;;;5.10;81.00;;;;;;5028355;28;20026;-65
2023/03/09 08:39:36;;;;;;;11.63;7.70;;;5.10;81.00;;;;;;5032630;28;20029;-65
2023/03/09 08:42:03;;;;;;;11.77;7.55;;;5.20;81.00;;;;;;5011032;28;20026;-66
2023/03/09 08:44:28;;;;;;;10.95;6.55;;;5.20;81.00;;;;;;5010756;28;20385;-66
2023/03/09 08:46:55;;;;;;;11.32;6.50;;;5.30;80.90;;;;;;5031653;28;20030;-66
2023/03/09 08:49:20;;;;;;;9.60;6.32;;;5.30;80.80;;;;;;4999657;28;20041;-72
2023/03/09 08:51:47;;;;;;;8.75;6.20;;;5.40;81.00;;;;;;5024147;28;20439;-74
2023/03/09 08:54:13;;;;;;;10.18;5.68;;;5.40;80.80;;;;;;5030903;28;20029;-74
2023/03/09 08:56:38;;;;;;;10.40;6.82;;;5.40;80.70;;;;;;5013372;28;20112;-72
2023/03/09 08:59:04;;;;;;;14.07;7.43;;;5.40;80.80;;;;;;5038704;28;20139;-65
2023/03/09 09:01:30;;;;;;;11.68;7.75;;;5.50;80.80;;;;;;5034176;28;20057;-65
2023/03/09 09:03:55;;;;;;;10.25;6.68;;;5.50;80.80;;;;;;5025611;28;20034;-65
2023/03/09 09:06:21;;;;;;;14.32;8.23;;;5.50;80.80;;;;;;5006111;28;20153;-65
2023/03/09 09:08:47;;;;;;;12.80;6.90;;;5.50;80.70;;;;;;5025076;28;20067;-66
2023/03/09 09:11:15;;;;;;;12.40;6.82;;;5.60;80.70;;;;;;4995442;28;20057;-66
2023/03/09 09:13:41;;;;;;;13.00;7.45;;;5.60;80.70;;;;;;5026115;28;20033;-66
2023/03/09 09:16:09;;;;;;;10.70;6.30;;;5.60;80.60;;;;;;5033502;28;20037;-73
2023/03/09 09:18:38;;;;;;;9.05;6.22;;;5.50;80.50;;;;;;5037857;28;20041;-74
2023/03/09 09:21:07;;;;;;;8.95;5.93;;;5.50;80.50;;;;;;5032970;28;20510;-74
2023/03/09 09:23:40;;;;;;;8.23;6.75;;;5.60;80.50;;;;;;5031263;28;20373;-74
2023/03/09 09:26:06;;;;;;;;;;;5.60;80.50;;;;;;5027389;28;20021;-74
2023/03/09 09:28:32;;;;;;;11.30;6.97;;;5.60;80.40;;;;;;5004010;28;20431;-73
2023/03/09 09:30:59;;;;;;;12.10;8.32;;;5.60;80.60;;;;;;5034794;28;20029;-74
2023/03/09 09:33:28;;;;;;;9.85;6.18;;;5.60;80.50;;;;;;5037613;28;20033;-74
2023/03/09 09:36:15;;;;;;;15.32;7.65;;;5.60;80.50;;;;;;5030482;28;20033;-74
2023/03/09 09:38:44;;;;;;;11.75;7.30;;;5.60;80.40;;;;;;5025273;28;20025;-74
2023/03/09 09:41:31;;;;;;;11.05;6.40;;;5.60;80.50;;;;;;5023271;28;20525;-75
2023/03/09 09:44:02;;;;;;;8.88;6.78;;;5.70;80.60;;;;;;5024570;28;20030;-74
2023/03/09 09:46:30;;;;;;;12.27;7.70;;;5.70;80.60;;;;;;5029403;28;20021;-75
2023/03/09 09:48:57;;;;;;;10.30;6.60;;;5.70;80.50;;;;;;5032727;28;20463;-74
2023/03/09 09:51:35;;;;;;;10.80;6.95;;;5.70;80.50;;;;;;5027985;28;20036;-74
2023/03/09 09:54:22;;;;;;;11.70;7.25;;;5.70;80.50;;;;;;5007295;28;20146;-74
2023/03/09 09:56:50;;;;;;;9.98;6.95;;;5.80;80.60;;;;;;5022752;28;20080;-75
2023/03/09 09:59:30;;;;;;;9.88;5.75;;;5.80;80.70;;;;;;5023045;28;20840;-74
2023/03/09 10:02:21;;;;;;;13.20;7.10;;;5.90;81.10;;;;;;5022384;28;20026;-74
2023/03/09 10:05:01;;;;;;;10.43;7.33;;;5.90;80.20;;;;;;5023972;28;20033;-74
2023/03/09 10:07:28;;;;;;;13.20;7.85;;;5.90;80.10;;;;;;5023078;28;20487;-75
2023/03/09 10:10:01;;;;;;;10.52;7.95;;;5.80;80.30;;;;;;5011709;28;20025;-75
2023/03/09 10:12:27;;;;;;;12.75;6.97;;;5.90;80.40;;;;;;5008203;28;20359;-75
2023/03/09 10:14:56;;;;;;;13.85;8.15;;;5.90;80.30;;;;;;5028461;28;20041;-74
2023/03/09 10:17:31;;;;;;;8.50;5.57;;;6.00;80.00;;;;;;5018988;28;20129;-75
2023/03/09 10:20:20;;;;;;;12.98;7.28;;;6.00;80.10;;;;;;5024332;28;20061;-74
2023/03/09 10:22:49;;;;;;;13.25;7.72;;;6.10;80.10;;;;;;5027141;28;20084;-66
2023/03/09 10:25:19;;;;;;;10.50;7.45;;;6.10;80.10;;;;;;5016819;28;20030;-66
2023/03/09 10:28:01;;;;;;;10.35;6.78;;;6.20;80.10;;;;;;5025605;28;20029;-67
2023/03/09 10:30:32;;;;;;;12.27;7.85;;;6.20;79.90;;;;;;5020005;28;20025;-65
2023/03/09 10:33:19;;;;;;;12.18;7.07;;;6.30;79.90;;;;;;5025851;28;20029;-67
2023/03/09 10:36:06;;;;;;;12.55;8.25;;;6.40;79.80;;;;;;5021202;28;20156;-74
2023/03/09 10:38:33;;;;;;;8.73;6.72;;;6.40;79.70;;;;;;5028956;28;20040;-74
2023/03/09 10:40:59;;;;;;;15.73;7.30;;;6.50;79.80;;;;;;5030798;28;20033;-73
2023/03/09 10:43:33;;;;;;;13.82;6.82;;;6.50;79.60;;;;;;5028269;28;20495;-74
2023/03/09 10:46:22;;;;;;;9.27;6.43;;;6.50;79.50;;;;;;5028652;28;20025;-74
2023/03/09 10:48:49;;;;;;;14.07;7.88;;;6.50;79.50;;;;;;5024597;28;20038;-71
2023/03/09 10:51:28;;;;;;;15.65;7.93;;;6.50;79.50;;;;;;5008143;28;20017;-73
2023/03/09 10:53:56;;;;;;;14.82;7.88;;;6.50;79.40;;;;;;5013893;28;20112;-72
2023/03/09 10:56:24;;;;;;;13.48;7.07;;;6.50;79.50;;;;;;5025601;28;20437;-71
2023/03/09 10:59:06;;;;;;;15.27;7.15;;;6.50;79.60;;;;;;5020413;28;20040;-74
2023/03/09 11:01:35;;;;;;;12.82;7.60;;;6.50;79.50;;;;;;5029207;28;20353;-74
2023/03/09 11:04:01;;;;;;;12.40;6.82;;;6.50;79.50;;;;;;5009881;28;20035;-68
2023/03/09 11:06:36;;;;;;;12.23;7.45;;;6.50;79.50;;;;;;5013786;28;20469;-69
2023/03/09 11:09:15;;;;;;;12.00;6.90;;;6.50;79.40;;;;;;5026963;28;20084;-75
2023/03/09 11:11:43;;;;;;;12.73;7.05;;;6.60;79.40;;;;;;5024462;28;20091;-75
2023/03/09 11:14:29;;;;;;;14.05;6.85;;;6.50;79.30;;;;;;5028680;28;20025;-69
2023/03/09 11:17:00;;;;;;;13.70;8.65;;;6.60;79.30;;;;;;5007212;28;20052;-67
2023/03/09 11:19:27;;;;;;;11.80;7.40;;;6.50;79.40;;;;;;5008792;28;20025;-69
2023/03/09 11:21:56;;;;;;;11.98;7.05;;;6.50;79.50;;;;;;5026559;28;20378;-68
2023/03/09 11:24:34;;;;;;;17.33;7.35;;;6.40;79.60;;;;;;5027177;28;20033;-68
2023/03/09 11:27:15;;;;;;;17.40;7.88;;;6.40;79.80;;;;;;5027128;28;20738;-68
2023/03/09 11:29:51;;;;;;;10.38;6.97;;;6.30;79.90;;;;;;5022123;28;20092;-68
2023/03/09 11:32:17;;;;;;;13.43;6.90;;;6.30;80.10;;;;;;5025531;28;20034;-67
2023/03/09 11:34:44;;;;;;;12.85;6.70;;;6.40;80.10;;;;;;5010705;28;20055;-65
2023/03/09 11:37:27;;;;;;;12.65;7.18;;;6.40;80.20;;;;;;5014767;28;20033;-66
2023/03/09 11:40:05;;;;;;;13.18;8.10;;;6.50;80.00;;;;;;5037754;28;20473;-67
2023/03/09 11:42:52;;;;;;;10.57;6.78;;;6.50;79.90;;;;;;5027001;28;20511;-65
2023/03/09 11:45:24;;;;;;;12.65;7.90;;;6.60;79.90;;;;;;5040536;28;20033;-66
2023/03/09 11:47:55;;;;;;;13.40;7.10;;;6.60;79.80;;;;;;5040200;28;20030;-66
2023/03/09 11:50:23;;;;;;;18.00;9.07;;;6.60;79.70;;;;;;5021628;28;20110;-67
2023/03/09 11:53:13;;;;;;;13.88;8.15;;;6.60;79.70;;;;;;5016332;28;20070;-66
2023/03/09 11:55:43;;;;;;;16.25;8.00;;;6.70;79.80;;;;;;5027997;28;20112;-75
2023/03/09 11:58:14;;;;;;;12.40;7.43;;;6.60;79.80;;;;;;5036789;28;20020;-75
2023/03/09 12:00:46;;;;;;;12.52;6.72;;;6.60;79.60;;;;;;5032213;28;20068;-74
2023/03/09 12:03:16;;;;;;;11.85;7.47;;;6.60;79.60;;;;;;5026649;28;20120;-74
2023/03/09 12:05:50;;;;;;;13.00;7.90;;;6.60;79.50;;;;;;5029570;28;20057;-75
2023/03/09 12:08:38;;;;;;;11.23;6.68;;;6.60;79.50;;;;;;5029903;28;20029;-74
2023/03/09 12:11:23;;;;;;;13.48;8.70;;;6.60;79.50;;;;;;5013290;28;20032;-75
2023/03/09 12:14:23;;;;;;;11.45;6.80;;;6.60;79.60;;;;;;5011875;28;20022;-75
2023/03/09 12:16:54;;;;;;;10.38;6.65;;;6.60;79.60;;;;;;5034520;28;20100;-74
2023/03/09 12:19:24;;;;;;;13.27;8.25;;;6.60;79.90;;;;;;5016152;28;20476;-75
2023/03/09 12:22:02;;;;;;;15.55;8.13;;;6.60;79.90;;;;;;5032332;28;20133;-75
2023/03/09 12:24:30;;;;;;;9.93;6.40;;;6.60;79.80;;;;;;5011181;28;20034;-75
2023/03/09 12:27:14;;;;;;;13.50;8.10;;;6.60;79.80;;;;;;5027791;28;20021;-75
2023/03/09 12:29:49;;;;;;;12.95;7.40;;;6.60;79.70;;;;;;5025538;28;20033;-74
2023/03/09 12:32:23;;;;;;;14.50;7.57;;;6.60;79.70;;;;;;5029220;28;20018;-74
2023/03/09 12:35:17;;;;;;;12.80;7.15;;;6.60;79.80;;;;;;5027488;28;20040;-66
2023/03/09 12:37:51;;;;;;;14.93;7.68;;;6.50;79.70;;;;;;4996922;28;20081;-67
2023/03/09 12:40:19;;;;;;;12.40;7.25;;;6.40;79.70;;;;;;5019479;28;20079;-65
2023/03/09 12:42:49;;;;;;;13.13;6.47;;;6.40;79.90;;;;;;5008241;28;20044;-65
2023/03/09 12:45:18;;;;;;;16.17;7.63;;;6.40;79.90;;;;;;5029768;28;20034;-66
2023/03/09 12:48:11;;;;;;;12.93;7.10;;;6.40;79.90;;;;;;5031484;28;20033;-73
2023/03/09 12:50:42;;;;;;;;;;;6.40;79.90;;;;;;5021387;28;20327;-74
2023/03/09 12:53:14;;;;;;;13.07;7.38;;;6.30;80.00;;;;;;5031004;28;20347;-75
2023/03/09 12:55:39;;;;;;;14.10;8.13;;;6.30;80.20;;;;;;5029655;28;20025;-74
2023/03/09 12:58:17;;;;;;;10.15;7.35;;;6.30;80.10;;;;;;5004137;28;20060;-75
2023/03/09 13:01:05;;;;;;;16.63;8.10;;;6.20;80.00;;;;;;5011794;28;20080;-74